• Join FlightAware (Why Join?)
  • Login
  • US Flag 
02:42AM EDT


 

Airport Tracker/Info


-or-


 

Live Flight TrackerFlight Track Log ✈ SWA1903 ✈ 23-May-2013 ✈ KDTW - KMCI

Flight Track Log - Related Links

Times and Time Zones

All times are in EDT time to prevent confusion due to time zone crossing. See the SWA1903 flight status page for this flight to view local times or setup timezone preferences in your user account.

Time Position Orientation Groundspeed Altitude Reporting Facility
EDT Latitude Longitude Course Direction KTS MPH feet Rate Location/Type
11:49AM 42.2356 -83.3317 14° North 164 189 1,700  Level Cleveland Center
11:50AM 42.3028 -83.3092 14° North 216 249 4,600 2,640 Climbing Cleveland Center
11:51AM 42.3589 -83.3228 350° North 237 273 7,700 2,160 Climbing Cleveland Center
11:52AM 42.3639 -83.4553 273° West 289 333 10,000 900 Climbing Cleveland Center
11:53AM 42.3736 -83.5653 277° West 296 341 10,000 1,140 Level Cleveland Center
11:54AM 42.3850 -83.6839 277° West 296 341 12,300 2,700 Climbing Cleveland Center
11:55AM 42.3925 -83.7883 276° West 296 341 15,400 2,400 Climbing Cleveland Center
11:56AM 42.4036 -83.9156 277° West 319 367 17,200 2,400 Climbing Cleveland Center
11:57AM 42.4142 -84.0539 276° West 354 407 20,200 2,640 Climbing Cleveland Center
11:58AM 42.4261 -84.2008 276° West 379 436 22,500 1,920 Climbing Cleveland Center
12:00PM 42.4367 -84.5258 273° West 428 493 26,300 1,800 Climbing Chicago Center
12:01PM 42.4397 -84.6897 272° West 435 501 28,300 2,160 Climbing Chicago Center
12:02PM 42.4453 -84.8875 272° West 440 506 30,800 2,100 Climbing Chicago Center
12:04PM 42.4486 -85.0506 272° West 437 503 32,700 1,740 Climbing Chicago Center
12:05PM 42.4517 -85.2136 272° West 437 503 34,500 1,500 Climbing Chicago Center
12:06PM 42.4553 -85.3728 272° West 431 496 35,800 1,200 Climbing Chicago Center
12:07PM 42.4578 -85.5339 271° West 431 496 37,000 1,020 Climbing Chicago Center
12:08PM 42.4622 -85.7222 272° West 425 489 38,000 480 Climbing Chicago Center
12:09PM 42.4647 -85.8842 271° West 430 495 38,000  Level Chicago Center
12:10PM 42.4667 -86.0489 271° West 437 503 38,000  Level Chicago Center
12:11PM 42.4261 -86.2056 251° West 455 524 38,000  Level Chicago Center
12:12PM 42.3697 -86.3464 242° Southwest 435 501 38,000  Level Chicago Center
12:13PM 42.2983 -86.5192 241° Southwest 439 505 38,000  Level Chicago Center
12:14PM 42.2403 -86.6614 241° Southwest 437 503 38,000  Level Chicago Center
12:15PM 42.1842 -86.7986 241° Southwest 427 491 38,000  Level Chicago Center
12:16PM 42.1267 -86.9408 241° Southwest 431 496 38,000  Level Chicago Center
12:17PM 42.0681 -87.0814 241° Southwest 433 498 38,000  Level Chicago Center
12:18PM 41.9994 -87.2486 241° Southwest 430 495 38,000  Level Chicago Center
12:19PM 41.9414 -87.3883 241° Southwest 430 495 38,000  Level Chicago Center
12:20PM 41.8833 -87.5264 241° Southwest 429 494 38,000  Level Chicago Center
12:21PM 41.8236 -87.6661 240° Southwest 432 497 38,000  Level Chicago Center
12:22PM 41.7644 -87.8069 241° Southwest 439 505 38,000  Level Chicago Center
12:23PM 41.6939 -87.9742 241° Southwest 437 503 38,000  Level Chicago Center
12:24PM 41.6350 -88.1125 240° Southwest 437 503 38,000  Level Chicago Center
12:25PM 41.5756 -88.2508 240° Southwest 440 506 38,000  Level Chicago Center
12:26PM 41.5233 -88.3961 244° Southwest 444 511 38,000  Level Chicago Center
12:27PM 41.4694 -88.5736 248° West 437 503 38,000  Level Chicago Center
12:28PM 41.4242 -88.7236 248° West 440 506 38,000  Level Chicago Center
12:29PM 41.3786 -88.8744 248° West 441 507 38,000  Level Chicago Center
12:30PM 41.3317 -89.0242 247° West 441 507 38,000  Level Chicago Center
12:31PM 41.2875 -89.1753 249° West 440 506 38,000  Level Chicago Center
12:32PM 41.2414 -89.3289 248° West 440 506 38,000  Level Chicago Center
12:34PM 41.1856 -89.5056 247° West 434 499 38,000  Level Chicago Center
12:35PM 41.1400 -89.6517 248° West 432 497 38,000  Level Chicago Center
12:36PM 41.0639 -89.8842 247° West 433 498 38,000  Level Chicago Center
12:37PM 41.0169 -90.0297 247° West 433 498 38,000  Level Chicago Center
12:38PM 40.9692 -90.1742 246° West 435 501 38,000 -60 Level Chicago Center
12:39PM 40.9103 -90.3514 246° West 441 507 37,900 -600 Descending Chicago Center
12:40PM 40.8619 -90.4958 246° West 436 502 36,800 -960 Descending Chicago Center
12:41PM 40.8164 -90.6361 247° West 422 486 36,000 -420 Descending Chicago Center
12:42PM 40.7692 -90.7747 246° West 416 479 36,000  Level Chicago Center
12:43PM 40.7214 -90.9156 246° West 421 484 36,000  Level Chicago Center
12:44PM 40.6733 -91.0561 246° West 421 484 36,000  Level Chicago Center
12:45PM 40.6156 -91.2258 246° West 423 487 36,000  Level Chicago Center
12:46PM 40.5808 -91.3256 245° Southwest 421 484 36,000  Level Kansas City Center
12:47PM 40.5322 -91.4661 246° West 424 488 36,000  Level Kansas City Center
12:48PM 40.4844 -91.6064 246° West 424 488 36,000  Level Kansas City Center
12:49PM 40.4275 -91.7742 246° West 423 487 36,000  Level Kansas City Center
12:50PM 40.3775 -91.9150 245° Southwest 425 489 36,000  Level Kansas City Center
12:51PM 40.3267 -92.0561 245° Southwest 429 494 36,000  Level Kansas City Center
12:52PM 40.2764 -92.1961 245° Southwest 428 493 36,000  Level Kansas City Center
12:54PM 40.2219 -92.3486 245° Southwest 428 493 36,000  Level Kansas City Center
12:55PM 40.1644 -92.5056 244° Southwest 428 493 36,000  Level Kansas City Center
12:56PM 40.1181 -92.6400 246° West 425 489 36,000  Level Kansas City Center
12:57PM 40.0581 -92.7892 242° Southwest 427 491 36,000 -60 Level Kansas City Center
12:58PM 40.0050 -92.9256 243° Southwest 425 489 35,900 -1,440 Descending Kansas City Center
12:59PM 39.9519 -93.0617 243° Southwest 423 487 33,100 -2,760 Descending Kansas City Center
01:00PM 39.8981 -93.1975 243° Southwest 425 489 30,200 -2,520 Descending Kansas City Center
01:01PM 39.8467 -93.3300 243° Southwest 417 480 27,900 -2,280 Descending Kansas City Center
01:02PM 39.7967 -93.4564 243° Southwest 401 461 25,600 -2,460 Descending Kansas City Center
01:03PM 39.7381 -93.6036 243° Southwest 389 448 22,900 -2,400 Descending Kansas City Center
01:04PM 39.6906 -93.7231 243° Southwest 375 432 20,700 -2,100 Descending Kansas City Center
01:05PM 39.6439 -93.8431 243° Southwest 369 425 18,600 -2,400 Descending Kansas City Center
01:06PM 39.5833 -93.9703 238° Southwest 373 429 15,800 -2,460 Descending Kansas City Center
01:07PM 39.5283 -94.0778 236° Southwest 373 429 13,600 -1,800 Descending Kansas City Center
01:08PM 39.4672 -94.1981 237° Southwest 358 412 12,200 -780 Descending Kansas City Center
01:09PM 39.4181 -94.2958 237° Southwest 342 394 12,000 -240 Descending Kansas City Center
01:10PM 39.3650 -94.4003 237° Southwest 360 414 11,800 -600 Descending Kansas City Center
01:11PM 39.3089 -94.5097 236° Southwest 325 374 10,800 -1,200 Descending Kansas City Center
01:12PM 39.2644 -94.5967 237° Southwest 305 351 9,400 -1,380 Descending Kansas City Center
01:13PM 39.1764 -94.6347 199° South 303 349 8,000 -1,380 Descending Kansas City Center
01:14PM 39.1011 -94.6586 194° South 293 337 6,600 -1,860 Descending Kansas City Center
01:15PM 39.0839 -94.7492 256° West 247 284 4,200 -1,800 Descending Kansas City Center
01:16PM 39.1356 -94.7517 358° North 199 229 3,000 -720 Descending Kansas City Center
01:17PM 39.1892 -94.7364 12° North 177 204 2,800 -480 Descending Kansas City Center
01:18PM 39.2322 -94.7242 12° North 167 192 2,000 -780 Descending Kansas City Center
01:19PM 39.2753 -94.7125 12° North 144 166 1,200 -840 Descending Kansas City Center